createdAt,value
2022-11-16T00:00:29.858Z,9.32
2022-11-16T00:01:33.159Z,9.30
2022-11-16T00:02:34.877Z,9.31
2022-11-16T00:03:36.684Z,9.33
2022-11-16T00:04:38.470Z,9.36
2022-11-16T00:05:40.155Z,9.38
2022-11-16T00:06:41.813Z,9.41
2022-11-16T00:07:43.311Z,9.41
2022-11-16T00:09:07.191Z,9.32
2022-11-16T00:10:09.215Z,9.27
2022-11-16T00:11:16.372Z,9.32
2022-11-16T00:12:17.891Z,9.36
2022-11-16T00:13:19.803Z,9.40
2022-11-16T00:14:23.953Z,9.39
2022-11-16T00:15:25.466Z,9.40
2022-11-16T00:16:27.139Z,9.42
2022-11-16T00:17:28.702Z,9.44
2022-11-16T00:18:31.102Z,9.42
2022-11-16T00:19:32.857Z,9.43
2022-11-16T00:20:34.407Z,9.46
2022-11-16T00:21:35.990Z,9.48
2022-11-16T00:22:37.552Z,9.50
2022-11-16T00:23:39.276Z,9.52
2022-11-16T00:24:40.940Z,9.51
2022-11-16T00:25:42.488Z,9.51
2022-11-16T00:26:44.556Z,9.52
2022-11-16T00:27:46.110Z,9.54
2022-11-16T00:28:48.686Z,9.53
2022-11-16T00:29:50.241Z,9.53
2022-11-16T00:31:01.635Z,9.47
2022-11-16T00:32:03.238Z,9.47
2022-11-16T00:33:06.502Z,9.42
2022-11-16T00:34:08.191Z,9.43
2022-11-16T00:35:09.859Z,9.41
2022-11-16T00:36:13.037Z,9.41
2022-11-16T00:37:14.614Z,9.40
2022-11-16T00:38:16.200Z,9.41
2022-11-16T00:39:18.886Z,9.43
2022-11-16T00:40:20.450Z,9.44
2022-11-16T00:41:22.033Z,9.45
2022-11-16T00:42:23.627Z,9.47
2022-11-16T00:43:25.633Z,9.47
2022-11-16T00:44:27.245Z,9.47
2022-11-16T00:45:28.752Z,9.48
2022-11-16T00:46:30.263Z,9.48
2022-11-16T00:47:31.761Z,9.48
2022-11-16T00:48:33.687Z,9.50
2022-11-16T00:49:35.419Z,9.49
2022-11-16T00:50:37.515Z,9.51
2022-11-16T00:51:39.061Z,9.49
2022-11-16T00:52:40.582Z,9.50
2022-11-16T00:53:42.122Z,9.49
2022-11-16T00:54:43.663Z,9.45
2022-11-16T00:55:46.618Z,9.45
2022-11-16T00:56:48.248Z,9.40
2022-11-16T00:57:49.981Z,9.27
2022-11-16T00:58:51.570Z,8.98
2022-11-16T00:59:53.141Z,8.78
2022-11-16T01:00:55.044Z,8.68
2022-11-16T01:01:56.614Z,8.54
2022-11-16T01:02:58.186Z,8.50
2022-11-16T01:03:59.763Z,8.51
2022-11-16T01:05:01.319Z,8.57
2022-11-16T01:06:05.383Z,8.59
2022-11-16T01:07:06.982Z,8.49
2022-11-16T01:08:08.575Z,8.45
2022-11-16T01:09:10.103Z,8.34
2022-11-16T01:10:13.648Z,8.27
2022-11-16T01:11:34.847Z,8.12
2022-11-16T01:12:36.607Z,7.87
2022-11-16T01:13:38.150Z,7.67
2022-11-16T01:14:46.229Z,7.42
2022-11-16T01:15:48.560Z,7.28
2022-11-16T01:16:51.072Z,7.28
2022-11-16T01:17:54.589Z,7.42
2022-11-16T01:18:56.506Z,7.55
2022-11-16T01:19:58.068Z,7.67
2022-11-16T01:20:59.630Z,7.73
2022-11-16T01:22:01.347Z,7.78
2022-11-16T01:23:02.924Z,7.80
2022-11-16T01:24:04.791Z,7.77
2022-11-16T01:25:07.618Z,7.82
2022-11-16T01:26:09.366Z,7.90
2022-11-16T01:27:10.919Z,7.96
2022-11-16T01:28:12.454Z,8.08
2022-11-16T01:29:14.027Z,8.20
2022-11-16T01:30:15.985Z,8.20
2022-11-16T01:31:17.887Z,8.27
2022-11-16T01:32:19.427Z,8.34
2022-11-16T01:33:21.501Z,8.33
2022-11-16T01:34:23.673Z,8.30
2022-11-16T01:35:25.190Z,8.26
2022-11-16T01:36:26.772Z,8.21
2022-11-16T01:37:29.984Z,8.16
2022-11-16T01:38:32.555Z,8.14
2022-11-16T01:39:34.376Z,8.14
2022-11-16T01:40:37.609Z,8.18
2022-11-16T01:41:41.156Z,8.23
2022-11-16T01:42:42.747Z,8.27
2022-11-16T01:44:05.786Z,8.31
2022-11-16T01:45:23.423Z,8.34
2022-11-16T01:46:26.693Z,8.36
2022-11-16T01:47:29.163Z,8.37
2022-11-16T01:48:31.317Z,8.38
2022-11-16T01:49:37.696Z,8.41
2022-11-16T01:50:39.717Z,8.42
2022-11-16T01:51:45.995Z,8.44
2022-11-16T01:53:02.021Z,8.48
2022-11-16T01:54:07.246Z,8.51
2022-11-16T01:55:09.867Z,8.53
2022-11-16T01:56:11.541Z,8.55
2022-11-16T01:57:18.262Z,8.57
2022-11-16T01:58:23.259Z,8.60
2022-11-16T01:59:25.081Z,8.62
2022-11-16T02:00:26.772Z,8.65
2022-11-16T02:01:28.441Z,8.63
2022-11-16T02:02:30.030Z,8.56
2022-11-16T02:03:31.555Z,8.51
2022-11-16T02:04:33.151Z,8.36
2022-11-16T02:05:50.929Z,8.18
2022-11-16T02:07:23.489Z,8.02
2022-11-16T02:09:30.125Z,7.94
2022-11-16T02:10:55.481Z,7.93
2022-11-16T02:12:03.065Z,7.93
2022-11-16T02:13:20.086Z,7.86
2022-11-16T02:14:29.349Z,7.78
2022-11-16T02:15:58.601Z,7.83
2022-11-16T02:17:20.357Z,7.83
2022-11-16T02:18:35.696Z,7.92
2022-11-16T02:19:59.036Z,8.05
2022-11-16T02:21:19.082Z,8.19
2022-11-16T02:22:29.921Z,8.25
2022-11-16T02:24:05.341Z,8.32
2022-11-16T02:25:21.206Z,8.38
2022-11-16T02:26:36.581Z,8.39
2022-11-16T02:27:56.264Z,8.33
2022-11-16T02:29:16.147Z,8.37
2022-11-16T02:30:20.248Z,8.39
2022-11-16T02:31:30.743Z,8.42
2022-11-16T02:32:39.875Z,8.45
2022-11-16T02:33:44.250Z,8.49
2022-11-16T02:34:50.298Z,8.52
2022-11-16T02:35:56.406Z,8.54
2022-11-16T02:36:59.398Z,8.57
2022-11-16T02:38:07.918Z,8.61
2022-11-16T02:39:14.766Z,8.62
2022-11-16T02:40:20.271Z,8.52
2022-11-16T02:41:24.048Z,8.51
2022-11-16T02:42:34.248Z,8.51
2022-11-16T02:43:41.145Z,8.56
2022-11-16T02:44:47.192Z,8.62
2022-11-16T02:45:54.023Z,8.66
2022-11-16T02:46:59.795Z,8.77
2022-11-16T02:48:07.279Z,8.81
2022-11-16T02:49:15.056Z,8.83
2022-11-16T02:50:19.677Z,8.79
2022-11-16T02:51:24.064Z,8.70
2022-11-16T02:52:28.574Z,8.65
2022-11-16T02:53:39.416Z,8.63
2022-11-16T02:54:40.964Z,8.61
2022-11-16T02:55:42.479Z,8.60
2022-11-16T02:57:04.857Z,8.60
2022-11-16T02:58:09.784Z,8.50
2022-11-16T02:59:16.480Z,8.42
2022-11-16T03:00:24.880Z,8.36
2022-11-16T03:01:36.815Z,8.32
2022-11-16T03:02:54.231Z,8.25
2022-11-16T03:04:05.910Z,8.21
2022-11-16T03:05:15.488Z,8.23
2022-11-16T03:06:22.371Z,8.20
2022-11-16T03:07:29.208Z,8.12
2022-11-16T03:08:35.161Z,7.96
2022-11-16T03:09:38.927Z,7.90
2022-11-16T03:11:02.158Z,7.80
2022-11-16T03:12:11.039Z,7.62
2022-11-16T03:13:15.329Z,7.53
2022-11-16T03:14:20.604Z,7.58
2022-11-16T03:15:22.707Z,7.59
2022-11-16T03:16:32.990Z,7.51
2022-11-16T03:17:40.403Z,7.54
2022-11-16T03:18:46.213Z,7.45
2022-11-16T03:20:05.152Z,7.48
2022-11-16T03:21:31.718Z,7.51
2022-11-16T03:22:43.627Z,7.41
2022-11-16T03:23:46.062Z,7.36
2022-11-16T03:24:47.825Z,7.36
2022-11-16T03:25:52.668Z,7.32
2022-11-16T03:27:07.242Z,7.27
2022-11-16T03:28:21.302Z,7.28
2022-11-16T03:29:50.225Z,7.32
2022-11-16T03:31:08.355Z,7.33
2022-11-16T03:32:28.654Z,7.27
2022-11-16T03:34:02.942Z,7.24
2022-11-16T03:35:13.777Z,7.24
2022-11-16T03:36:27.676Z,7.22
2022-11-16T03:37:31.312Z,7.21
2022-11-16T03:38:36.747Z,7.22
2022-11-16T03:39:39.632Z,7.23
2022-11-16T03:40:43.223Z,7.18
2022-11-16T03:41:47.385Z,7.14
2022-11-16T03:42:50.004Z,7.14
2022-11-16T03:43:52.947Z,7.16
2022-11-16T03:44:55.832Z,7.18
2022-11-16T03:45:58.231Z,7.16
2022-11-16T03:46:59.853Z,7.18
2022-11-16T03:48:01.436Z,7.21
2022-11-16T03:49:03.034Z,7.23
2022-11-16T03:50:04.960Z,7.26
2022-11-16T03:51:09.066Z,7.31
2022-11-16T03:52:10.937Z,7.39
2022-11-16T03:53:12.534Z,7.49
2022-11-16T03:54:14.039Z,7.55
2022-11-16T03:55:16.042Z,7.64
2022-11-16T03:56:17.626Z,7.73
2022-11-16T03:57:19.243Z,7.82
2022-11-16T03:58:20.809Z,7.89
2022-11-16T03:59:22.446Z,7.93
2022-11-16T04:00:23.978Z,8.00
2022-11-16T04:01:25.579Z,8.07
2022-11-16T04:02:27.163Z,8.16
2022-11-16T04:03:28.671Z,8.19
2022-11-16T04:04:49.091Z,8.19
2022-11-16T04:06:09.270Z,8.16
2022-11-16T04:07:29.497Z,8.13
2022-11-16T04:08:49.245Z,8.13
2022-11-16T04:10:09.038Z,8.10
2022-11-16T04:11:35.381Z,8.03
2022-11-16T04:13:02.885Z,7.99
2022-11-16T04:14:23.620Z,7.97
2022-11-16T04:15:43.573Z,8.09
2022-11-16T04:17:03.283Z,8.23
2022-11-16T04:18:23.703Z,8.37
2022-11-16T04:19:43.907Z,8.47
2022-11-16T04:21:04.324Z,8.52
2022-11-16T04:22:33.091Z,8.55
2022-11-16T04:23:53.494Z,8.54
2022-11-16T04:24:59.838Z,8.54
2022-11-16T04:26:01.408Z,8.52
2022-11-16T04:27:24.491Z,8.48
2022-11-16T04:28:31.753Z,8.50
2022-11-16T04:29:34.547Z,8.51
2022-11-16T04:30:54.340Z,8.56
2022-11-16T04:32:15.712Z,8.61
2022-11-16T04:33:35.972Z,8.66
2022-11-16T04:34:55.794Z,8.68
2022-11-16T04:36:20.451Z,8.65
2022-11-16T04:37:40.776Z,8.54
2022-11-16T04:38:42.287Z,8.38
2022-11-16T04:39:43.850Z,8.36
2022-11-16T04:40:45.427Z,8.42
2022-11-16T04:42:05.442Z,8.50
2022-11-16T04:43:07.447Z,8.58
2022-11-16T04:44:09.161Z,8.58
2022-11-16T04:45:29.375Z,8.50
2022-11-16T04:46:49.471Z,8.40
2022-11-16T04:47:51.842Z,8.25
2022-11-16T04:48:53.467Z,8.11
2022-11-16T04:49:55.049Z,8.03
2022-11-16T04:50:56.591Z,8.06
2022-11-16T04:51:58.386Z,8.12
2022-11-16T04:53:00.094Z,8.21
2022-11-16T04:54:04.160Z,8.26
2022-11-16T04:55:06.150Z,8.20
2022-11-16T04:56:07.903Z,8.20
2022-11-16T04:57:09.533Z,8.18
2022-11-16T04:58:11.167Z,8.16
2022-11-16T04:59:12.866Z,8.05
2022-11-16T05:00:18.163Z,7.99
2022-11-16T05:01:39.930Z,7.98
2022-11-16T05:02:42.065Z,8.03
2022-11-16T05:03:44.013Z,8.02
2022-11-16T05:04:45.665Z,7.99
2022-11-16T05:05:49.906Z,8.01
2022-11-16T05:06:52.082Z,7.99
2022-11-16T05:07:53.747Z,8.03
2022-11-16T05:08:55.344Z,8.00
2022-11-16T05:09:56.934Z,8.00
2022-11-16T05:10:58.517Z,8.01
2022-11-16T05:12:00.178Z,7.95
2022-11-16T05:13:01.671Z,7.92
2022-11-16T05:14:03.231Z,7.88
2022-11-16T05:15:06.483Z,7.92
2022-11-16T05:16:08.409Z,7.99
2022-11-16T05:17:10.003Z,8.06
2022-11-16T05:18:11.813Z,8.12
2022-11-16T05:19:33.355Z,8.20
2022-11-16T05:20:53.969Z,8.28
2022-11-16T05:21:55.503Z,8.38
2022-11-16T05:22:58.601Z,8.43
2022-11-16T05:24:18.579Z,8.49
2022-11-16T05:25:20.099Z,8.56
2022-11-16T05:26:21.695Z,8.61
2022-11-16T05:27:24.372Z,8.65
2022-11-16T05:28:25.986Z,8.69
2022-11-16T05:29:27.674Z,8.73
2022-11-16T05:30:29.769Z,8.77
2022-11-16T05:31:35.047Z,8.82
2022-11-16T05:32:39.234Z,8.85
2022-11-16T05:33:40.856Z,8.90
2022-11-16T05:34:42.531Z,8.93
2022-11-16T05:35:44.035Z,8.97
2022-11-16T05:36:45.544Z,9.00
2022-11-16T05:37:47.106Z,9.07
2022-11-16T05:38:51.583Z,9.12
2022-11-16T05:39:57.214Z,9.13
2022-11-16T05:40:58.743Z,9.13
2022-11-16T05:42:00.394Z,9.05
2022-11-16T05:43:01.945Z,9.06
2022-11-16T05:44:03.828Z,9.06
2022-11-16T05:45:05.974Z,9.07
2022-11-16T05:46:07.606Z,9.06
2022-11-16T05:47:09.206Z,9.04
2022-11-16T05:48:10.817Z,9.06
2022-11-16T05:49:13.004Z,9.05
2022-11-16T05:50:14.791Z,9.04
2022-11-16T05:51:16.407Z,9.02
2022-11-16T05:52:18.205Z,9.03
2022-11-16T05:53:19.782Z,8.94
2022-11-16T05:54:24.825Z,8.99
2022-11-16T05:55:26.457Z,8.96
2022-11-16T05:56:28.133Z,8.92
2022-11-16T05:57:29.684Z,8.90
2022-11-16T05:58:31.366Z,8.91
2022-11-16T05:59:33.182Z,8.93
2022-11-16T06:00:34.724Z,8.95
2022-11-16T06:01:36.311Z,8.98
2022-11-16T06:02:37.892Z,9.02
2022-11-16T06:03:39.474Z,9.05
2022-11-16T06:04:41.107Z,9.03
2022-11-16T06:05:42.813Z,8.99
2022-11-16T06:06:44.402Z,8.98
2022-11-16T06:07:46.002Z,9.03
2022-11-16T06:08:47.587Z,9.06
2022-11-16T06:09:49.164Z,9.11
2022-11-16T06:10:51.163Z,9.14
2022-11-16T06:11:52.727Z,9.21
2022-11-16T06:12:54.388Z,9.21
2022-11-16T06:13:55.926Z,9.23
2022-11-16T06:14:57.466Z,9.22
2022-11-16T06:16:00.248Z,9.28
2022-11-16T06:17:01.755Z,9.28
2022-11-16T06:18:03.388Z,9.30
2022-11-16T06:19:04.943Z,9.31
2022-11-16T06:20:07.889Z,9.33
2022-11-16T06:21:10.728Z,9.34
2022-11-16T06:22:12.290Z,9.42
2022-11-16T06:23:14.260Z,9.29
2022-11-16T06:24:15.983Z,9.09
2022-11-16T06:25:17.485Z,9.05
2022-11-16T06:26:19.023Z,8.99
2022-11-16T06:27:20.557Z,9.04
2022-11-16T06:28:23.160Z,9.03
2022-11-16T06:29:24.772Z,9.06
2022-11-16T06:30:26.512Z,9.07
2022-11-16T06:31:28.046Z,9.10
2022-11-16T06:32:30.036Z,9.12
2022-11-16T06:33:33.732Z,9.05
2022-11-16T06:34:35.632Z,9.02
2022-11-16T06:35:37.245Z,9.06
2022-11-16T06:36:38.870Z,9.12
2022-11-16T06:37:40.528Z,9.17
2022-11-16T06:38:42.326Z,9.19
2022-11-16T06:39:43.907Z,9.25
2022-11-16T06:40:49.751Z,9.26
2022-11-16T06:41:51.343Z,9.29
2022-11-16T06:42:52.952Z,9.32
2022-11-16T06:43:54.586Z,9.33
2022-11-16T06:44:56.714Z,9.37
2022-11-16T06:45:58.598Z,9.43
2022-11-16T06:47:00.393Z,9.44
2022-11-16T06:48:01.906Z,9.46
2022-11-16T06:49:03.495Z,9.46
2022-11-16T06:50:05.536Z,9.47
2022-11-16T06:51:07.076Z,9.48
2022-11-16T06:52:08.574Z,9.53
2022-11-16T06:54:37.943Z,9.46
2022-11-16T06:55:39.602Z,9.45
2022-11-16T06:56:41.238Z,9.50
2022-11-16T06:57:42.783Z,9.54
2022-11-16T06:58:44.420Z,9.59
2022-11-16T06:59:45.965Z,9.65
2022-11-16T07:00:47.663Z,9.69
2022-11-16T07:01:49.375Z,9.74
2022-11-16T07:02:50.956Z,9.80
2022-11-16T07:03:52.629Z,9.84
2022-11-16T07:04:56.118Z,9.89
2022-11-16T07:05:59.618Z,9.92
2022-11-16T07:07:01.229Z,9.92
2022-11-16T07:08:02.956Z,9.94
2022-11-16T07:09:08.063Z,10.00
2022-11-16T07:10:10.365Z,10.05
2022-11-16T07:11:11.894Z,10.09
2022-11-16T07:12:13.465Z,10.12
2022-11-16T07:13:15.006Z,10.16
2022-11-16T07:14:17.557Z,10.20
2022-11-16T07:15:19.554Z,10.22
2022-11-16T07:16:21.438Z,10.24
2022-11-16T07:17:23.015Z,10.26
2022-11-16T07:18:24.557Z,10.28
2022-11-16T07:19:26.056Z,10.24
2022-11-16T07:20:27.664Z,10.11
2022-11-16T07:21:29.577Z,10.11
2022-11-16T07:22:32.788Z,10.10
2022-11-16T07:23:40.038Z,10.07
2022-11-16T07:24:41.576Z,10.09
2022-11-16T07:25:46.705Z,10.11
2022-11-16T07:26:48.306Z,10.11
2022-11-16T07:27:49.902Z,10.16
2022-11-16T07:28:51.408Z,10.17
2022-11-16T07:29:52.999Z,10.05
2022-11-16T07:30:54.569Z,10.08
2022-11-16T07:31:56.164Z,10.03
2022-11-16T07:33:54.072Z,9.99
2022-11-16T07:35:51.933Z,9.98
2022-11-16T07:37:49.931Z,10.02
2022-11-16T07:39:51.886Z,10.09
2022-11-16T07:41:46.718Z,10.18
2022-11-16T07:44:01.317Z,10.11
2022-11-16T07:46:21.401Z,9.88
2022-11-16T07:47:58.196Z,9.58
2022-11-16T07:49:50.778Z,9.58
2022-11-16T07:51:36.033Z,9.79
2022-11-16T07:57:57.896Z,10.27
2022-11-16T08:01:57.313Z,10.63
2022-11-16T08:24:20.910Z,10.98
2022-11-16T08:26:09.495Z,11.33
2022-11-16T08:27:46.044Z,11.55
2022-11-16T08:31:21.188Z,11.88
2022-11-16T08:33:29.435Z,12.11
2022-11-16T08:35:40.157Z,12.32
2022-11-16T08:46:24.278Z,12.89
2022-11-16T08:48:04.694Z,13.01
2022-11-16T08:49:24.463Z,13.09
2022-11-16T08:51:16.869Z,13.09
2022-11-16T08:52:53.803Z,13.02
2022-11-16T08:54:38.513Z,12.99
2022-11-16T09:00:38.585Z,13.54
2022-11-16T09:03:01.285Z,13.76
2022-11-16T09:13:48.317Z,13.78
2022-11-16T09:24:27.072Z,13.78
2022-11-16T09:32:46.197Z,14.14
2022-11-16T09:37:16.357Z,13.76
2022-11-16T09:44:02.561Z,13.80
2022-11-16T09:46:11.503Z,13.95
2022-11-16T09:48:22.075Z,14.00
2022-11-16T09:50:19.975Z,14.00
2022-11-16T09:53:03.579Z,14.13
2022-11-16T09:56:38.354Z,14.14
2022-11-16T09:58:13.032Z,14.27
2022-11-16T10:05:42.566Z,14.61
2022-11-16T10:07:41.838Z,14.41
2022-11-16T10:16:05.766Z,13.68
2022-11-16T10:20:06.538Z,13.32
2022-11-16T10:21:46.266Z,13.32
2022-11-16T10:24:02.627Z,13.46
2022-11-16T10:27:52.111Z,13.61
2022-11-16T10:32:04.843Z,13.62
2022-11-16T10:34:09.995Z,13.74
2022-11-16T10:38:36.527Z,13.86
2022-11-16T10:40:25.471Z,13.91
2022-11-16T10:42:27.494Z,13.82
2022-11-16T10:50:54.668Z,13.84
2022-11-16T10:52:27.096Z,13.88
2022-11-16T10:54:19.947Z,13.80
2022-11-16T10:56:17.452Z,13.85
2022-11-16T10:58:27.471Z,14.00
2022-11-16T11:00:36.623Z,13.95
2022-11-16T11:18:07.013Z,13.86
2022-11-16T11:19:18.628Z,13.93
2022-11-16T11:20:24.233Z,14.00
2022-11-16T11:21:27.738Z,13.99
2022-11-16T11:22:30.856Z,13.97
2022-11-16T11:23:45.403Z,13.91
2022-11-16T11:24:48.710Z,13.90
2022-11-16T11:25:55.284Z,13.89
2022-11-16T11:27:03.329Z,13.95
2022-11-16T11:28:19.480Z,13.82
2022-11-16T11:29:28.466Z,13.78
2022-11-16T11:30:30.187Z,13.71
2022-11-16T11:31:44.368Z,13.76
2022-11-16T11:32:46.697Z,13.83
2022-11-16T11:34:03.264Z,13.94
2022-11-16T11:35:06.598Z,14.03
2022-11-16T11:36:20.763Z,14.14
2022-11-16T11:37:36.035Z,14.21
2022-11-16T11:39:03.469Z,14.20
2022-11-16T11:40:29.129Z,14.21
2022-11-16T11:41:37.107Z,14.21
2022-11-16T11:42:44.044Z,14.30
2022-11-16T11:44:02.654Z,14.32
2022-11-16T11:45:08.448Z,14.34
2022-11-16T11:46:19.031Z,14.28
2022-11-16T11:49:03.936Z,14.22
2022-11-16T11:50:19.735Z,14.20
2022-11-16T11:51:25.432Z,14.18
2022-11-16T11:52:37.856Z,14.27
2022-11-16T11:53:57.715Z,14.31
2022-11-16T11:55:01.440Z,14.28
2022-11-16T11:56:03.160Z,14.31
2022-11-16T11:57:11.518Z,14.37
2022-11-16T11:58:19.332Z,14.33
2022-11-16T11:59:25.127Z,14.23
2022-11-16T12:00:26.809Z,14.17
2022-11-16T12:01:53.164Z,14.18
2022-11-16T12:03:23.952Z,14.21
2022-11-16T12:04:47.498Z,14.14
2022-11-16T12:06:29.247Z,14.11
2022-11-16T12:07:55.271Z,14.16
2022-11-16T12:09:33.343Z,14.17
2022-11-16T12:11:01.444Z,14.05
2022-11-16T12:12:14.631Z,14.13
2022-11-16T12:13:53.567Z,14.21
2022-11-16T12:15:06.828Z,14.27
2022-11-16T12:16:37.633Z,14.26
2022-11-16T12:17:45.417Z,14.37
2022-11-16T12:19:33.522Z,14.42
2022-11-16T12:21:13.899Z,14.54
2022-11-16T12:22:54.127Z,14.59
2022-11-16T12:24:07.130Z,14.50
2022-11-16T12:25:39.829Z,14.42
2022-11-16T12:26:53.256Z,14.40
2022-11-16T12:28:25.679Z,14.43
2022-11-16T12:29:27.231Z,14.33
2022-11-16T12:30:30.055Z,14.25
2022-11-16T12:31:52.951Z,14.19
2022-11-16T12:33:12.007Z,14.18
2022-11-16T12:34:38.232Z,14.13
2022-11-16T12:35:49.004Z,14.13
2022-11-16T12:37:16.970Z,14.10
2022-11-16T12:38:28.471Z,14.04
2022-11-16T12:39:56.473Z,13.99
2022-11-16T12:41:22.479Z,14.02
2022-11-16T12:42:48.390Z,14.15
2022-11-16T12:44:18.882Z,14.25
2022-11-16T12:45:50.013Z,14.20
2022-11-16T12:47:10.340Z,14.20
2022-11-16T12:48:14.815Z,14.28
2022-11-16T12:49:26.476Z,14.26
2022-11-16T12:50:54.532Z,14.18
2022-11-16T12:52:32.897Z,14.15
2022-11-16T12:53:49.100Z,14.10
2022-11-16T12:55:34.323Z,14.10
2022-11-16T12:57:09.560Z,14.09
2022-11-16T12:58:25.471Z,14.09
2022-11-16T13:00:08.714Z,14.14
2022-11-16T13:01:33.929Z,14.14
2022-11-16T13:03:00.657Z,14.14
2022-11-16T13:04:18.579Z,14.27
2022-11-16T13:05:24.558Z,14.26
2022-11-16T13:06:44.204Z,14.21
2022-11-16T13:07:51.019Z,14.24
2022-11-16T13:09:00.784Z,14.26
2022-11-16T13:10:12.487Z,14.32
2022-11-16T13:11:17.342Z,14.44
2022-11-16T13:12:23.525Z,14.42
2022-11-16T13:13:38.338Z,14.45
2022-11-16T13:14:46.884Z,14.47
2022-11-16T13:15:48.508Z,14.46
2022-11-16T13:16:52.212Z,14.45
2022-11-16T13:17:58.818Z,14.43
2022-11-16T13:19:04.640Z,14.42
2022-11-16T13:20:17.055Z,14.47
2022-11-16T13:21:24.793Z,14.51
2022-11-16T13:22:28.902Z,14.58
2022-11-16T13:23:55.026Z,14.58
2022-11-16T13:24:59.745Z,14.52
2022-11-16T13:26:24.141Z,14.50
2022-11-16T13:27:36.205Z,14.51
2022-11-16T13:28:51.632Z,14.52
2022-11-16T13:30:11.755Z,14.59
2022-11-16T13:31:38.510Z,14.60
2022-11-16T13:32:57.846Z,14.52
2022-11-16T13:34:07.286Z,14.48
2022-11-16T13:35:14.952Z,14.41
2022-11-16T13:36:45.390Z,14.45
2022-11-16T13:37:49.225Z,14.47
2022-11-16T13:38:54.070Z,14.42
2022-11-16T13:39:58.557Z,14.43
2022-11-16T13:41:38.631Z,14.52
2022-11-16T13:42:57.443Z,14.53
2022-11-16T13:43:59.559Z,14.53
2022-11-16T13:45:15.267Z,14.54
2022-11-16T13:46:48.333Z,14.52
2022-11-16T13:47:38.356Z,14.50
2022-11-16T13:48:45.548Z,14.55
2022-11-16T13:49:52.283Z,14.53
2022-11-16T13:51:06.260Z,14.49
2022-11-16T13:52:23.568Z,14.48
2022-11-16T13:55:28.790Z,14.49
2022-11-16T13:56:48.954Z,14.55
2022-11-16T13:57:52.589Z,14.57
2022-11-16T13:58:55.766Z,14.52
2022-11-16T14:00:03.824Z,14.50
2022-11-16T14:01:10.643Z,14.50
2022-11-16T14:02:31.620Z,14.53
2022-11-16T14:03:38.678Z,14.55
2022-11-16T14:05:23.328Z,14.61
2022-11-16T14:06:24.900Z,14.64
2022-11-16T14:07:32.572Z,14.71
2022-11-16T14:08:35.031Z,14.69
2022-11-16T14:09:51.512Z,14.73
2022-11-16T14:10:52.993Z,14.76
2022-11-16T14:11:54.554Z,14.75
2022-11-16T14:12:56.728Z,14.75
2022-11-16T14:14:01.487Z,14.74
2022-11-16T14:15:21.969Z,14.84
2022-11-16T14:16:23.586Z,14.85
2022-11-16T14:18:00.199Z,14.89
2022-11-16T14:19:02.958Z,14.92
2022-11-16T14:20:05.500Z,14.88
2022-11-16T14:21:19.312Z,14.85
2022-11-16T14:22:35.614Z,14.75
2022-11-16T14:23:49.166Z,14.71
2022-11-16T14:25:02.037Z,14.58
2022-11-16T14:26:12.656Z,14.56
2022-11-16T14:27:36.153Z,14.63
2022-11-16T14:28:56.166Z,14.59
2022-11-16T14:30:19.515Z,14.56
2022-11-16T14:31:27.759Z,14.60
2022-11-16T14:32:42.510Z,14.62
2022-11-16T14:33:51.015Z,14.68
2022-11-16T14:34:55.777Z,14.66
2022-11-16T14:35:57.896Z,14.60
2022-11-16T14:37:00.488Z,14.58
2022-11-16T14:38:08.774Z,14.54
2022-11-16T14:39:24.855Z,14.53
2022-11-16T14:40:27.078Z,14.51
2022-11-16T14:41:29.073Z,14.59
2022-11-16T14:42:48.432Z,14.63
2022-11-16T14:43:58.142Z,14.66
2022-11-16T14:45:02.520Z,14.71
2022-11-16T14:46:09.983Z,14.67
2022-11-16T14:47:26.635Z,14.59
2022-11-16T14:48:28.255Z,14.58
2022-11-16T14:49:34.846Z,14.52
2022-11-16T14:50:40.777Z,14.45
2022-11-16T14:51:49.964Z,14.34
2022-11-16T14:52:57.213Z,14.35
2022-11-16T14:54:15.951Z,14.32
2022-11-16T14:55:24.432Z,14.33
2022-11-16T14:56:26.010Z,14.36
2022-11-16T14:57:30.011Z,14.36
2022-11-16T14:58:33.409Z,14.32
2022-11-16T14:59:35.051Z,14.32
2022-11-16T15:00:37.478Z,14.29
2022-11-16T15:01:40.039Z,14.33
2022-11-16T15:02:44.799Z,14.30
2022-11-16T15:04:04.950Z,14.25
2022-11-16T15:05:07.143Z,14.21
2022-11-16T15:06:09.117Z,14.18
2022-11-16T15:07:12.961Z,14.14
2022-11-16T15:08:22.289Z,14.16
2022-11-16T15:09:34.360Z,14.12
2022-11-16T15:10:35.989Z,14.09
2022-11-16T15:11:59.218Z,14.07
2022-11-16T15:13:01.024Z,14.03
2022-11-16T15:14:02.627Z,14.04
2022-11-16T15:15:12.007Z,14.04
2022-11-16T15:16:19.690Z,14.07
2022-11-16T15:17:27.288Z,14.06
2022-11-16T15:18:31.798Z,14.06
2022-11-16T15:19:33.622Z,14.09
2022-11-16T15:20:38.344Z,14.08
2022-11-16T15:21:39.926Z,14.09
2022-11-16T15:22:47.162Z,14.10
2022-11-16T15:24:02.061Z,14.09
2022-11-16T15:25:30.583Z,14.11
2022-11-16T15:26:32.154Z,14.08
2022-11-16T15:27:33.627Z,14.11
2022-11-16T15:28:35.136Z,14.09
2022-11-16T15:29:37.147Z,14.08
2022-11-16T15:30:40.291Z,14.11
2022-11-16T15:31:42.398Z,14.12
2022-11-16T15:32:45.845Z,14.14
2022-11-16T15:33:47.690Z,14.14
2022-11-16T15:34:53.532Z,14.15
2022-11-16T15:35:55.755Z,14.17
2022-11-16T15:36:57.272Z,14.17
2022-11-16T15:38:18.804Z,14.19
2022-11-16T15:39:23.955Z,14.19
2022-11-16T15:40:25.887Z,14.24
2022-11-16T15:41:29.379Z,14.25
2022-11-16T15:42:31.154Z,14.25
2022-11-16T15:43:44.827Z,14.25
2022-11-16T15:44:52.682Z,14.27
2022-11-16T15:45:55.030Z,14.29
2022-11-16T15:46:57.167Z,14.34
2022-11-16T15:48:01.707Z,14.41
2022-11-16T15:49:03.628Z,14.45
2022-11-16T15:50:05.497Z,14.46
2022-11-16T15:51:14.159Z,14.38
2022-11-16T15:53:02.087Z,14.35
2022-11-16T15:54:30.315Z,14.33
2022-11-16T15:55:36.803Z,14.28
2022-11-16T15:56:38.551Z,14.27
2022-11-16T15:57:45.487Z,14.29
2022-11-16T15:58:49.507Z,14.29
2022-11-16T15:59:54.791Z,14.33
2022-11-16T16:00:58.991Z,14.32
2022-11-16T16:02:00.707Z,14.28
2022-11-16T16:03:22.230Z,14.24
2022-11-16T16:04:25.679Z,14.25
2022-11-16T16:05:35.509Z,14.20
2022-11-16T16:06:56.588Z,14.20
2022-11-16T16:07:59.555Z,14.22
2022-11-16T16:09:06.167Z,14.22
2022-11-16T16:10:14.515Z,14.18
2022-11-16T16:11:16.015Z,14.18
2022-11-16T16:12:23.280Z,14.17
2022-11-16T16:13:29.498Z,14.19
2022-11-16T16:14:31.177Z,14.27
2022-11-16T16:15:36.686Z,14.27
2022-11-16T16:16:39.638Z,14.26
2022-11-16T16:17:46.114Z,14.25
2022-11-16T16:18:48.239Z,14.23
2022-11-16T16:20:01.409Z,14.22
2022-11-16T16:21:03.261Z,14.27
2022-11-16T16:22:12.243Z,14.27
2022-11-16T16:23:17.858Z,14.30
2022-11-16T16:24:42.396Z,14.25
2022-11-16T16:25:50.071Z,14.16
2022-11-16T16:26:52.139Z,14.11
2022-11-16T16:27:53.670Z,14.11
2022-11-16T16:28:55.316Z,14.13
2022-11-16T16:29:58.535Z,14.12
2022-11-16T16:31:00.059Z,14.09
2022-11-16T16:32:01.785Z,14.08
2022-11-16T16:33:03.425Z,14.08
2022-11-16T16:34:11.717Z,14.13
2022-11-16T16:35:17.901Z,14.19
2022-11-16T16:36:19.402Z,14.24
2022-11-16T16:37:21.211Z,14.26
2022-11-16T16:38:22.734Z,14.25
2022-11-16T16:39:24.380Z,14.21
2022-11-16T16:40:26.544Z,14.23
2022-11-16T16:41:28.137Z,14.29
2022-11-16T16:42:29.708Z,14.38
2022-11-16T16:43:32.196Z,14.37
2022-11-16T16:44:33.992Z,14.38
2022-11-16T16:45:43.863Z,14.32
2022-11-16T16:46:45.385Z,14.27
2022-11-16T16:47:47.791Z,14.21
2022-11-16T16:48:49.367Z,14.18
2022-11-16T16:49:51.267Z,14.14
2022-11-16T16:50:52.823Z,14.09
2022-11-16T16:51:54.427Z,14.06
2022-11-16T16:52:56.078Z,13.99
2022-11-16T16:53:57.578Z,13.97
2022-11-16T16:54:59.075Z,13.94
2022-11-16T16:56:00.858Z,13.90
2022-11-16T16:57:02.600Z,13.88
2022-11-16T16:58:04.903Z,13.87
2022-11-16T16:59:06.549Z,13.87
2022-11-16T17:00:10.660Z,13.85
2022-11-16T17:01:12.275Z,13.84
2022-11-16T17:02:14.865Z,13.85
2022-11-16T17:03:16.504Z,13.83
2022-11-16T17:04:18.828Z,13.82
2022-11-16T17:05:20.496Z,13.81
2022-11-16T17:06:22.097Z,13.80
2022-11-16T17:07:23.768Z,13.78
2022-11-16T17:08:27.524Z,13.73
2022-11-16T17:09:29.571Z,13.72
2022-11-16T17:10:31.163Z,13.71
2022-11-16T17:11:32.778Z,13.71
2022-11-16T17:12:34.436Z,13.75
2022-11-16T17:13:36.347Z,13.78
2022-11-16T17:14:38.126Z,13.76
2022-11-16T17:15:39.828Z,13.81
2022-11-16T17:16:41.380Z,13.82
2022-11-16T17:17:42.976Z,13.83
2022-11-16T17:18:44.819Z,13.88
2022-11-16T17:19:49.839Z,13.93
2022-11-16T17:20:51.387Z,13.98
2022-11-16T17:21:55.459Z,14.02
2022-11-16T17:22:59.551Z,14.00
2022-11-16T17:24:01.301Z,14.03
2022-11-16T17:25:05.649Z,14.09
2022-11-16T17:26:08.642Z,13.98
2022-11-16T17:27:10.237Z,13.89
2022-11-16T17:28:11.766Z,13.87
2022-11-16T17:29:13.318Z,13.83
2022-11-16T17:30:15.180Z,13.85
2022-11-16T17:31:17.482Z,13.87
2022-11-16T17:32:19.029Z,13.84
2022-11-16T17:33:20.548Z,13.87